sensor_id;sensor_type;location;lat;lon;timestamp;temperature;humidity
6174;DHT22;3120;48.796;9.796;2022-11-12T00:00:29;4.10;99.90
6174;DHT22;3120;48.796;9.796;2022-11-12T00:02:54;4.10;99.90
6174;DHT22;3120;48.796;9.796;2022-11-12T00:05:20;4.00;99.90
6174;DHT22;3120;48.796;9.796;2022-11-12T00:07:46;4.00;99.90
6174;DHT22;3120;48.796;9.796;2022-11-12T00:10:11;4.00;99.90
6174;DHT22;3120;48.796;9.796;2022-11-12T00:12:37;3.90;99.90
6174;DHT22;3120;48.796;9.796;2022-11-12T00:15:03;3.80;99.90
6174;DHT22;3120;48.796;9.796;2022-11-12T00:17:28;3.90;99.90
6174;DHT22;3120;48.796;9.796;2022-11-12T00:19:54;3.90;99.90
6174;DHT22;3120;48.796;9.796;2022-11-12T00:22:20;3.80;99.90
6174;DHT22;3120;48.796;9.796;2022-11-12T00:24:46;3.80;99.90
6174;DHT22;3120;48.796;9.796;2022-11-12T00:27:12;3.80;99.90
6174;DHT22;3120;48.796;9.796;2022-11-12T00:29:38;3.80;99.90
6174;DHT22;3120;48.796;9.796;2022-11-12T00:32:06;4.60;99.90
6174;DHT22;3120;48.796;9.796;2022-11-12T00:34:32;4.60;99.90
6174;DHT22;3120;48.796;9.796;2022-11-12T00:36:59;3.60;99.90
6174;DHT22;3120;48.796;9.796;2022-11-12T00:39:25;3.60;99.90
6174;DHT22;3120;48.796;9.796;2022-11-12T00:41:50;4.30;99.90
6174;DHT22;3120;48.796;9.796;2022-11-12T00:44:16;3.50;99.90
6174;DHT22;3120;48.796;9.796;2022-11-12T00:46:41;3.60;99.90
6174;DHT22;3120;48.796;9.796;2022-11-12T00:49:07;3.60;99.90
6174;DHT22;3120;48.796;9.796;2022-11-12T00:51:33;3.70;99.90
6174;DHT22;3120;48.796;9.796;2022-11-12T00:53:59;3.70;99.90
6174;DHT22;3120;48.796;9.796;2022-11-12T00:56:24;3.60;99.90
6174;DHT22;3120;48.796;9.796;2022-11-12T00:58:50;3.70;99.90
6174;DHT22;3120;48.796;9.796;2022-11-12T01:01:15;3.70;99.90
6174;DHT22;3120;48.796;9.796;2022-11-12T01:03:42;3.60;99.90
6174;DHT22;3120;48.796;9.796;2022-11-12T01:06:14;3.60;99.90
6174;DHT22;3120;48.796;9.796;2022-11-12T01:08:40;3.50;99.90
6174;DHT22;3120;48.796;9.796;2022-11-12T01:11:12;3.50;99.90
6174;DHT22;3120;48.796;9.796;2022-11-12T01:13:39;3.50;99.90
6174;DHT22;3120;48.796;9.796;2022-11-12T01:16:10;3.40;99.90
6174;DHT22;3120;48.796;9.796;2022-11-12T01:18:37;3.40;99.90
6174;DHT22;3120;48.796;9.796;2022-11-12T01:21:04;3.30;99.90
6174;DHT22;3120;48.796;9.796;2022-11-12T01:23:34;3.30;99.90
6174;DHT22;3120;48.796;9.796;2022-11-12T01:26:09;3.20;99.90
6174;DHT22;3120;48.796;9.796;2022-11-12T01:28:36;3.20;99.90
6174;DHT22;3120;48.796;9.796;2022-11-12T01:31:17;3.20;99.90
6174;DHT22;3120;48.796;9.796;2022-11-12T01:33:45;3.20;99.90
6174;DHT22;3120;48.796;9.796;2022-11-12T01:36:13;3.20;99.90
6174;DHT22;3120;48.796;9.796;2022-11-12T01:38:40;3.10;99.90
6174;DHT22;3120;48.796;9.796;2022-11-12T01:41:08;3.10;99.90
6174;DHT22;3120;48.796;9.796;2022-11-12T01:43:34;3.20;99.90
6174;DHT22;3120;48.796;9.796;2022-11-12T01:46:02;3.20;99.90
6174;DHT22;3120;48.796;9.796;2022-11-12T01:48:36;3.20;99.90
6174;DHT22;3120;48.796;9.796;2022-11-12T01:51:03;3.10;99.90
6174;DHT22;3120;48.796;9.796;2022-11-12T01:53:30;3.10;99.90
6174;DHT22;3120;48.796;9.796;2022-11-12T01:55:59;3.10;99.90
6174;DHT22;3120;48.796;9.796;2022-11-12T01:58:27;3.10;99.90
6174;DHT22;3120;48.796;9.796;2022-11-12T02:00:55;3.10;99.90
6174;DHT22;3120;48.796;9.796;2022-11-12T02:03:23;3.00;99.90
6174;DHT22;3120;48.796;9.796;2022-11-12T02:05:58;3.00;99.90
6174;DHT22;3120;48.796;9.796;2022-11-12T02:08:27;3.00;99.90
6174;DHT22;3120;48.796;9.796;2022-11-12T02:10:53;3.00;99.90
6174;DHT22;3120;48.796;9.796;2022-11-12T02:13:19;3.00;99.90
6174;DHT22;3120;48.796;9.796;2022-11-12T02:16:04;3.00;99.90
6174;DHT22;3120;48.796;9.796;2022-11-12T02:18:31;2.80;99.90
6174;DHT22;3120;48.796;9.796;2022-11-12T02:21:03;2.80;99.90
6174;DHT22;3120;48.796;9.796;2022-11-12T02:23:29;2.90;99.90
6174;DHT22;3120;48.796;9.796;2022-11-12T02:25:58;2.90;99.90
6174;DHT22;3120;48.796;9.796;2022-11-12T02:28:24;4.00;99.90
6174;DHT22;3120;48.796;9.796;2022-11-12T02:30:50;2.80;99.90
6174;DHT22;3120;48.796;9.796;2022-11-12T02:33:16;2.80;99.90
6174;DHT22;3120;48.796;9.796;2022-11-12T02:35:41;2.90;99.90
6174;DHT22;3120;48.796;9.796;2022-11-12T02:38:07;2.80;99.90
6174;DHT22;3120;48.796;9.796;2022-11-12T02:40:33;2.70;99.90
6174;DHT22;3120;48.796;9.796;2022-11-12T02:42:59;2.80;99.90
6174;DHT22;3120;48.796;9.796;2022-11-12T02:45:26;2.80;99.90
6174;DHT22;3120;48.796;9.796;2022-11-12T02:47:51;2.80;99.90
6174;DHT22;3120;48.796;9.796;2022-11-12T02:50:17;2.80;99.90
6174;DHT22;3120;48.796;9.796;2022-11-12T02:52:43;2.80;99.90
6174;DHT22;3120;48.796;9.796;2022-11-12T02:55:10;2.80;99.90
6174;DHT22;3120;48.796;9.796;2022-11-12T02:57:37;2.80;99.90
6174;DHT22;3120;48.796;9.796;2022-11-12T03:00:05;2.80;99.90
6174;DHT22;3120;48.796;9.796;2022-11-12T03:02:31;2.80;99.90
6174;DHT22;3120;48.796;9.796;2022-11-12T03:04:56;2.80;99.90
6174;DHT22;3120;48.796;9.796;2022-11-12T03:07:22;2.70;99.90
6174;DHT22;3120;48.796;9.796;2022-11-12T03:09:47;2.70;99.90
6174;DHT22;3120;48.796;9.796;2022-11-12T03:12:13;2.60;99.90
6174;DHT22;3120;48.796;9.796;2022-11-12T03:14:39;2.60;99.90
6174;DHT22;3120;48.796;9.796;2022-11-12T03:17:04;3.20;99.90
6174;DHT22;3120;48.796;9.796;2022-11-12T03:19:30;3.70;99.90
6174;DHT22;3120;48.796;9.796;2022-11-12T03:22:32;2.70;99.90
6174;DHT22;3120;48.796;9.796;2022-11-12T03:24:58;2.80;99.90
6174;DHT22;3120;48.796;9.796;2022-11-12T03:27:23;2.80;99.90
6174;DHT22;3120;48.796;9.796;2022-11-12T03:29:49;2.80;99.90
6174;DHT22;3120;48.796;9.796;2022-11-12T03:32:14;2.90;99.90
6174;DHT22;3120;48.796;9.796;2022-11-12T03:34:40;2.90;99.90
6174;DHT22;3120;48.796;9.796;2022-11-12T03:37:05;4.40;99.90
6174;DHT22;3120;48.796;9.796;2022-11-12T03:39:34;2.90;99.90
6174;DHT22;3120;48.796;9.796;2022-11-12T03:42:01;2.90;99.90
6174;DHT22;3120;48.796;9.796;2022-11-12T03:44:26;2.90;99.90
6174;DHT22;3120;48.796;9.796;2022-11-12T03:46:52;3.00;99.90
6174;DHT22;3120;48.796;9.796;2022-11-12T03:49:18;3.00;99.90
6174;DHT22;3120;48.796;9.796;2022-11-12T03:51:43;3.00;99.90
6174;DHT22;3120;48.796;9.796;2022-11-12T03:54:09;3.00;99.90
6174;DHT22;3120;48.796;9.796;2022-11-12T03:56:34;3.10;99.90
6174;DHT22;3120;48.796;9.796;2022-11-12T03:59:00;3.20;99.90
6174;DHT22;3120;48.796;9.796;2022-11-12T04:01:26;3.10;99.90
6174;DHT22;3120;48.796;9.796;2022-11-12T04:03:51;3.20;99.90
6174;DHT22;3120;48.796;9.796;2022-11-12T04:06:17;3.20;99.90
6174;DHT22;3120;48.796;9.796;2022-11-12T04:09:12;3.20;99.90
6174;DHT22;3120;48.796;9.796;2022-11-12T04:11:37;3.20;99.90
6174;DHT22;3120;48.796;9.796;2022-11-12T04:14:03;3.10;99.90
6174;DHT22;3120;48.796;9.796;2022-11-12T04:16:29;3.20;99.90
6174;DHT22;3120;48.796;9.796;2022-11-12T04:19:13;3.10;99.90
6174;DHT22;3120;48.796;9.796;2022-11-12T04:22:01;3.10;99.90
6174;DHT22;3120;48.796;9.796;2022-11-12T04:24:32;3.10;99.90
6174;DHT22;3120;48.796;9.796;2022-11-12T04:27:19;3.10;99.90
6174;DHT22;3120;48.796;9.796;2022-11-12T04:29:46;3.10;99.90
6174;DHT22;3120;48.796;9.796;2022-11-12T04:32:31;3.20;99.90
6174;DHT22;3120;48.796;9.796;2022-11-12T04:34:57;3.20;99.90
6174;DHT22;3120;48.796;9.796;2022-11-12T04:37:25;3.20;99.90
6174;DHT22;3120;48.796;9.796;2022-11-12T04:39:51;3.20;99.90
6174;DHT22;3120;48.796;9.796;2022-11-12T04:42:17;3.20;99.90
6174;DHT22;3120;48.796;9.796;2022-11-12T04:45:03;3.20;99.90
6174;DHT22;3120;48.796;9.796;2022-11-12T04:47:39;3.20;99.90
6174;DHT22;3120;48.796;9.796;2022-11-12T04:50:09;3.30;99.90
6174;DHT22;3120;48.796;9.796;2022-11-12T04:52:36;3.30;99.90
6174;DHT22;3120;48.796;9.796;2022-11-12T04:55:02;3.20;99.90
6174;DHT22;3120;48.796;9.796;2022-11-12T04:57:28;3.20;99.90
6174;DHT22;3120;48.796;9.796;2022-11-12T04:59:53;3.20;99.90
6174;DHT22;3120;48.796;9.796;2022-11-12T05:02:19;3.20;99.90
6174;DHT22;3120;48.796;9.796;2022-11-12T05:04:45;3.20;99.90
6174;DHT22;3120;48.796;9.796;2022-11-12T05:07:11;3.20;99.90
6174;DHT22;3120;48.796;9.796;2022-11-12T05:09:37;3.20;99.90
6174;DHT22;3120;48.796;9.796;2022-11-12T05:12:03;3.30;99.90
6174;DHT22;3120;48.796;9.796;2022-11-12T05:14:28;3.30;99.90
6174;DHT22;3120;48.796;9.796;2022-11-12T05:16:54;3.30;99.90
6174;DHT22;3120;48.796;9.796;2022-11-12T05:19:19;3.30;99.90
6174;DHT22;3120;48.796;9.796;2022-11-12T05:21:45;3.30;99.90
6174;DHT22;3120;48.796;9.796;2022-11-12T05:24:37;3.30;99.90
6174;DHT22;3120;48.796;9.796;2022-11-12T05:27:05;3.30;99.90
6174;DHT22;3120;48.796;9.796;2022-11-12T05:29:31;3.30;99.90
6174;DHT22;3120;48.796;9.796;2022-11-12T05:31:56;3.30;99.90
6174;DHT22;3120;48.796;9.796;2022-11-12T05:34:22;3.30;99.90
6174;DHT22;3120;48.796;9.796;2022-11-12T05:36:48;3.30;99.90
6174;DHT22;3120;48.796;9.796;2022-11-12T05:39:14;3.30;99.90
6174;DHT22;3120;48.796;9.796;2022-11-12T05:41:39;3.20;99.90
6174;DHT22;3120;48.796;9.796;2022-11-12T05:44:05;3.30;99.90
6174;DHT22;3120;48.796;9.796;2022-11-12T05:46:30;3.20;99.90
6174;DHT22;3120;48.796;9.796;2022-11-12T05:48:56;3.10;99.90
6174;DHT22;3120;48.796;9.796;2022-11-12T05:53:51;3.10;99.90
6174;DHT22;3120;48.796;9.796;2022-11-12T05:56:16;3.10;99.90
6174;DHT22;3120;48.796;9.796;2022-11-12T05:58:42;3.20;99.90
6174;DHT22;3120;48.796;9.796;2022-11-12T06:01:08;3.10;99.90
6174;DHT22;3120;48.796;9.796;2022-11-12T06:03:33;3.10;99.90
6174;DHT22;3120;48.796;9.796;2022-11-12T06:05:59;3.10;99.90
6174;DHT22;3120;48.796;9.796;2022-11-12T06:08:24;3.00;99.90
6174;DHT22;3120;48.796;9.796;2022-11-12T06:10:51;4.50;99.90
6174;DHT22;3120;48.796;9.796;2022-11-12T06:13:18;3.00;99.90
6174;DHT22;3120;48.796;9.796;2022-11-12T06:15:44;3.00;99.90
6174;DHT22;3120;48.796;9.796;2022-11-12T06:18:10;3.00;99.90
6174;DHT22;3120;48.796;9.796;2022-11-12T06:20:36;5.70;99.90
6174;DHT22;3120;48.796;9.796;2022-11-12T06:23:02;3.00;99.90
6174;DHT22;3120;48.796;9.796;2022-11-12T06:25:28;3.00;99.90
6174;DHT22;3120;48.796;9.796;2022-11-12T06:27:54;3.00;99.90
6174;DHT22;3120;48.796;9.796;2022-11-12T06:30:20;3.00;99.90
6174;DHT22;3120;48.796;9.796;2022-11-12T06:32:46;3.00;99.90
6174;DHT22;3120;48.796;9.796;2022-11-12T06:35:12;3.00;99.90
6174;DHT22;3120;48.796;9.796;2022-11-12T06:37:38;5.40;99.90
6174;DHT22;3120;48.796;9.796;2022-11-12T06:40:04;3.00;99.90
6174;DHT22;3120;48.796;9.796;2022-11-12T06:42:30;3.00;99.90
6174;DHT22;3120;48.796;9.796;2022-11-12T06:44:56;3.10;99.90
6174;DHT22;3120;48.796;9.796;2022-11-12T06:47:21;3.10;99.90
6174;DHT22;3120;48.796;9.796;2022-11-12T06:49:47;3.10;99.90
6174;DHT22;3120;48.796;9.796;2022-11-12T06:52:14;3.10;99.90
6174;DHT22;3120;48.796;9.796;2022-11-12T06:54:40;4.60;99.90
6174;DHT22;3120;48.796;9.796;2022-11-12T06:57:05;5.20;99.90
6174;DHT22;3120;48.796;9.796;2022-11-12T06:59:31;3.20;99.90
6174;DHT22;3120;48.796;9.796;2022-11-12T07:01:56;3.30;99.90
6174;DHT22;3120;48.796;9.796;2022-11-12T07:04:23;3.20;99.90
6174;DHT22;3120;48.796;9.796;2022-11-12T07:06:50;6.00;99.90
6174;DHT22;3120;48.796;9.796;2022-11-12T07:09:15;3.30;99.90
6174;DHT22;3120;48.796;9.796;2022-11-12T07:11:41;3.30;99.90
6174;DHT22;3120;48.796;9.796;2022-11-12T07:14:07;3.30;99.90
6174;DHT22;3120;48.796;9.796;2022-11-12T07:16:33;3.40;99.90
6174;DHT22;3120;48.796;9.796;2022-11-12T07:18:59;3.40;99.90
6174;DHT22;3120;48.796;9.796;2022-11-12T07:21:25;3.30;99.90
6174;DHT22;3120;48.796;9.796;2022-11-12T07:23:51;3.50;99.90
6174;DHT22;3120;48.796;9.796;2022-11-12T07:26:18;3.50;99.90
6174;DHT22;3120;48.796;9.796;2022-11-12T07:28:45;3.50;99.90
6174;DHT22;3120;48.796;9.796;2022-11-12T07:31:13;3.60;99.90
6174;DHT22;3120;48.796;9.796;2022-11-12T07:33:40;3.70;99.90
6174;DHT22;3120;48.796;9.796;2022-11-12T07:36:17;3.70;99.90
6174;DHT22;3120;48.796;9.796;2022-11-12T07:38:43;3.70;99.90
6174;DHT22;3120;48.796;9.796;2022-11-12T07:41:24;3.70;99.90
6174;DHT22;3120;48.796;9.796;2022-11-12T07:43:51;5.30;99.90
6174;DHT22;3120;48.796;9.796;2022-11-12T07:46:25;3.80;99.90
6174;DHT22;3120;48.796;9.796;2022-11-12T07:48:51;3.90;99.90
6174;DHT22;3120;48.796;9.796;2022-11-12T07:53:45;4.00;99.90
6174;DHT22;3120;48.796;9.796;2022-11-12T07:56:16;4.10;99.90
6174;DHT22;3120;48.796;9.796;2022-11-12T07:58:42;4.20;99.90
6174;DHT22;3120;48.796;9.796;2022-11-12T08:01:10;4.90;99.90
6174;DHT22;3120;48.796;9.796;2022-11-12T08:03:42;4.40;99.90
6174;DHT22;3120;48.796;9.796;2022-11-12T08:06:08;4.50;99.90
6174;DHT22;3120;48.796;9.796;2022-11-12T08:08:33;4.60;99.90
6174;DHT22;3120;48.796;9.796;2022-11-12T08:10:59;4.70;99.90
6174;DHT22;3120;48.796;9.796;2022-11-12T08:13:25;4.80;99.90
6174;DHT22;3120;48.796;9.796;2022-11-12T08:15:50;4.90;99.90
6174;DHT22;3120;48.796;9.796;2022-11-12T08:18:16;5.00;99.90
6174;DHT22;3120;48.796;9.796;2022-11-12T08:20:42;5.10;99.90
6174;DHT22;3120;48.796;9.796;2022-11-12T08:23:08;5.20;99.90
6174;DHT22;3120;48.796;9.796;2022-11-12T08:25:35;5.30;99.90
6174;DHT22;3120;48.796;9.796;2022-11-12T08:28:00;5.30;99.90
6174;DHT22;3120;48.796;9.796;2022-11-12T08:30:27;5.50;99.90
6174;DHT22;3120;48.796;9.796;2022-11-12T08:33:04;5.60;99.90
6174;DHT22;3120;48.796;9.796;2022-11-12T08:35:31;5.90;99.90
6174;DHT22;3120;48.796;9.796;2022-11-12T08:38:01;5.80;99.90
6174;DHT22;3120;48.796;9.796;2022-11-12T08:40:29;6.00;99.90
6174;DHT22;3120;48.796;9.796;2022-11-12T08:43:03;6.10;99.90
6174;DHT22;3120;48.796;9.796;2022-11-12T08:45:31;8.00;99.90
6174;DHT22;3120;48.796;9.796;2022-11-12T08:48:02;6.50;99.90
6174;DHT22;3120;48.796;9.796;2022-11-12T08:50:29;6.70;99.90
6174;DHT22;3120;48.796;9.796;2022-11-12T08:52:59;6.90;99.90
6174;DHT22;3120;48.796;9.796;2022-11-12T08:55:25;6.80;99.90
6174;DHT22;3120;48.796;9.796;2022-11-12T08:57:51;6.80;99.90
6174;DHT22;3120;48.796;9.796;2022-11-12T09:00:17;6.80;99.90
6174;DHT22;3120;48.796;9.796;2022-11-12T09:02:42;7.00;99.90
6174;DHT22;3120;48.796;9.796;2022-11-12T09:05:08;7.10;99.90
6174;DHT22;3120;48.796;9.796;2022-11-12T09:07:34;7.20;99.90
6174;DHT22;3120;48.796;9.796;2022-11-12T09:09:59;7.40;99.90
6174;DHT22;3120;48.796;9.796;2022-11-12T09:12:25;7.40;99.90
6174;DHT22;3120;48.796;9.796;2022-11-12T09:14:51;7.50;99.90
6174;DHT22;3120;48.796;9.796;2022-11-12T09:17:17;7.70;99.90
6174;DHT22;3120;48.796;9.796;2022-11-12T09:19:42;7.70;99.90
6174;DHT22;3120;48.796;9.796;2022-11-12T09:22:08;7.80;99.90
6174;DHT22;3120;48.796;9.796;2022-11-12T09:24:33;7.90;99.90
6174;DHT22;3120;48.796;9.796;2022-11-12T09:27:00;8.00;99.90
6174;DHT22;3120;48.796;9.796;2022-11-12T09:29:25;8.00;99.90
6174;DHT22;3120;48.796;9.796;2022-11-12T09:31:51;8.20;99.90
6174;DHT22;3120;48.796;9.796;2022-11-12T09:34:16;8.20;99.90
6174;DHT22;3120;48.796;9.796;2022-11-12T09:36:42;8.40;99.90
6174;DHT22;3120;48.796;9.796;2022-11-12T09:39:08;8.50;99.90
6174;DHT22;3120;48.796;9.796;2022-11-12T09:41:36;8.80;99.90
6174;DHT22;3120;48.796;9.796;2022-11-12T09:44:18;9.00;99.90
6174;DHT22;3120;48.796;9.796;2022-11-12T09:46:53;9.00;99.90
6174;DHT22;3120;48.796;9.796;2022-11-12T09:49:28;9.10;99.90
6174;DHT22;3120;48.796;9.796;2022-11-12T09:52:02;9.30;71.50
6174;DHT22;3120;48.796;9.796;2022-11-12T09:54:33;9.50;79.00
6174;DHT22;3120;48.796;9.796;2022-11-12T09:57:00;9.60;30.00
6174;DHT22;3120;48.796;9.796;2022-11-12T09:59:33;9.80;16.60
6174;DHT22;3120;48.796;9.796;2022-11-12T10:04:48;10.00;1.00
6174;DHT22;3120;48.796;9.796;2022-11-12T10:12:54;10.10;41.70
6174;DHT22;3120;48.796;9.796;2022-11-12T10:15:49;10.20;21.20
6174;DHT22;3120;48.796;9.796;2022-11-12T10:24:09;10.70;1.00
6174;DHT22;3120;48.796;9.796;2022-11-12T10:26:36;10.90;1.00
6174;DHT22;3120;48.796;9.796;2022-11-12T10:29:27;11.00;1.00
6174;DHT22;3120;48.796;9.796;2022-11-12T10:31:54;11.20;1.00
6174;DHT22;3120;48.796;9.796;2022-11-12T10:34:21;11.30;1.00
6174;DHT22;3120;48.796;9.796;2022-11-12T10:37:00;11.40;1.00
6174;DHT22;3120;48.796;9.796;2022-11-12T10:39:37;11.50;1.00
6174;DHT22;3120;48.796;9.796;2022-11-12T10:42:10;11.50;1.00
6174;DHT22;3120;48.796;9.796;2022-11-12T10:44:38;11.60;1.00
6174;DHT22;3120;48.796;9.796;2022-11-12T10:47:23;13.80;1.00
6174;DHT22;3120;48.796;9.796;2022-11-12T10:52:34;12.00;1.00
6174;DHT22;3120;48.796;9.796;2022-11-12T10:55:21;12.00;1.00
6174;DHT22;3120;48.796;9.796;2022-11-12T10:58:13;12.00;1.00
6174;DHT22;3120;48.796;9.796;2022-11-12T11:00:59;12.90;1.00
6174;DHT22;3120;48.796;9.796;2022-11-12T11:03:48;13.70;99.90
6174;DHT22;3120;48.796;9.796;2022-11-12T11:06:21;13.10;99.90
6174;DHT22;3120;48.796;9.796;2022-11-12T11:08:51;13.20;99.90
6174;DHT22;3120;48.796;9.796;2022-11-12T11:11:30;13.20;14.50
6174;DHT22;3120;48.796;9.796;2022-11-12T11:16:51;12.90;1.00
6174;DHT22;3120;48.796;9.796;2022-11-12T11:19:17;13.00;1.00
6174;DHT22;3120;48.796;9.796;2022-11-12T11:26:53;13.20;99.90
6174;DHT22;3120;48.796;9.796;2022-11-12T11:32:32;13.50;69.90
6174;DHT22;3120;48.796;9.796;2022-11-12T11:37:55;13.50;1.00
6174;DHT22;3120;48.796;9.796;2022-11-12T11:47:03;13.50;86.60
6174;DHT22;3120;48.796;9.796;2022-11-12T11:57:14;13.50;99.90
6174;DHT22;3120;48.796;9.796;2022-11-12T12:00:00;13.60;1.00
6174;DHT22;3120;48.796;9.796;2022-11-12T12:07:47;13.90;99.90
6174;DHT22;3120;48.796;9.796;2022-11-12T12:13:20;14.10;99.90
6174;DHT22;3120;48.796;9.796;2022-11-12T12:21:15;14.30;99.90
6174;DHT22;3120;48.796;9.796;2022-11-12T12:23:51;14.30;1.00
6174;DHT22;3120;48.796;9.796;2022-11-12T12:26:20;14.40;99.90
6174;DHT22;3120;48.796;9.796;2022-11-12T12:29:06;14.40;1.00
6174;DHT22;3120;48.796;9.796;2022-11-12T12:31:50;14.40;1.00
6174;DHT22;3120;48.796;9.796;2022-11-12T12:34:28;14.30;99.90
6174;DHT22;3120;48.796;9.796;2022-11-12T12:39:53;14.50;1.00
6174;DHT22;3120;48.796;9.796;2022-11-12T12:43:00;14.80;99.90
6174;DHT22;3120;48.796;9.796;2022-11-12T12:45:42;14.40;99.90
6174;DHT22;3120;48.796;9.796;2022-11-12T12:48:17;14.40;99.90
6174;DHT22;3120;48.796;9.796;2022-11-12T12:50:44;14.40;1.00
6174;DHT22;3120;48.796;9.796;2022-11-12T12:55:56;14.30;1.00
6174;DHT22;3120;48.796;9.796;2022-11-12T12:58:45;14.40;1.00
6174;DHT22;3120;48.796;9.796;2022-11-12T13:03:54;14.50;1.00
6174;DHT22;3120;48.796;9.796;2022-11-12T13:06:33;14.50;1.00
6174;DHT22;3120;48.796;9.796;2022-11-12T13:43:04;14.10;1.00
6174;DHT22;3120;48.796;9.796;2022-11-12T13:45:32;15.00;1.00
6174;DHT22;3120;48.796;9.796;2022-11-12T13:47:59;14.30;99.90
6174;DHT22;3120;48.796;9.796;2022-11-12T13:50:30;14.10;99.90
6174;DHT22;3120;48.796;9.796;2022-11-12T13:52:58;14.00;1.00
6174;DHT22;3120;48.796;9.796;2022-11-12T13:55:23;14.00;99.90
6174;DHT22;3120;48.796;9.796;2022-11-12T13:57:55;14.20;99.90
6174;DHT22;3120;48.796;9.796;2022-11-12T14:00:26;13.90;1.00
6174;DHT22;3120;48.796;9.796;2022-11-12T14:02:57;13.90;99.90
6174;DHT22;3120;48.796;9.796;2022-11-12T14:05:27;13.80;99.90
6174;DHT22;3120;48.796;9.796;2022-11-12T14:10:34;13.70;99.90
6174;DHT22;3120;48.796;9.796;2022-11-12T14:13:18;13.70;99.90
6174;DHT22;3120;48.796;9.796;2022-11-12T14:19:36;13.50;99.90
6174;DHT22;3120;48.796;9.796;2022-11-12T14:24:33;13.40;1.00
6174;DHT22;3120;48.796;9.796;2022-11-12T14:26:59;13.30;99.90
6174;DHT22;3120;48.796;9.796;2022-11-12T14:29:25;13.20;99.90
6174;DHT22;3120;48.796;9.796;2022-11-12T14:32:01;13.30;1.00
6174;DHT22;3120;48.796;9.796;2022-11-12T14:34:32;13.70;99.90
6174;DHT22;3120;48.796;9.796;2022-11-12T14:36:59;13.10;1.00
6174;DHT22;3120;48.796;9.796;2022-11-12T14:39:26;14.10;25.40
6174;DHT22;3120;48.796;9.796;2022-11-12T14:41:56;13.20;99.90
6174;DHT22;3120;48.796;9.796;2022-11-12T14:44:27;14.00;99.90
6174;DHT22;3120;48.796;9.796;2022-11-12T14:47:22;12.90;99.90
6174;DHT22;3120;48.796;9.796;2022-11-12T14:49:48;12.70;50.80
6174;DHT22;3120;48.796;9.796;2022-11-12T14:52:18;12.70;1.00
6174;DHT22;3120;48.796;9.796;2022-11-12T14:54:53;12.60;1.00
6174;DHT22;3120;48.796;9.796;2022-11-12T14:57:30;12.50;1.00
6174;DHT22;3120;48.796;9.796;2022-11-12T14:59:57;12.40;99.90
6174;DHT22;3120;48.796;9.796;2022-11-12T15:02:28;12.70;1.00
6174;DHT22;3120;48.796;9.796;2022-11-12T15:05:00;12.30;1.00
6174;DHT22;3120;48.796;9.796;2022-11-12T15:07:33;13.20;1.00
6174;DHT22;3120;48.796;9.796;2022-11-12T15:09:59;12.50;99.90
6174;DHT22;3120;48.796;9.796;2022-11-12T15:12:27;12.10;99.90
6174;DHT22;3120;48.796;9.796;2022-11-12T15:17:32;11.90;1.00
6174;DHT22;3120;48.796;9.796;2022-11-12T15:20:05;11.80;1.00
6174;DHT22;3120;48.796;9.796;2022-11-12T15:22:36;11.70;1.00
6174;DHT22;3120;48.796;9.796;2022-11-12T15:27:41;11.60;7.50
6174;DHT22;3120;48.796;9.796;2022-11-12T15:30:17;11.50;35.60
6174;DHT22;3120;48.796;9.796;2022-11-12T15:32:43;11.40;66.50
6174;DHT22;3120;48.796;9.796;2022-11-12T15:35:30;11.50;89.10
6174;DHT22;3120;48.796;9.796;2022-11-12T15:37:59;11.10;99.90
6174;DHT22;3120;48.796;9.796;2022-11-12T15:40:26;11.00;99.90
6174;DHT22;3120;48.796;9.796;2022-11-12T15:42:52;10.90;99.90
6174;DHT22;3120;48.796;9.796;2022-11-12T15:45:20;10.80;99.90
6174;DHT22;3120;48.796;9.796;2022-11-12T15:47:46;10.60;99.90
6174;DHT22;3120;48.796;9.796;2022-11-12T15:50:16;11.30;99.90
6174;DHT22;3120;48.796;9.796;2022-11-12T15:52:43;10.50;99.90
6174;DHT22;3120;48.796;9.796;2022-11-12T15:55:13;10.50;99.90
6174;DHT22;3120;48.796;9.796;2022-11-12T15:57:48;10.30;99.90
6174;DHT22;3120;48.796;9.796;2022-11-12T16:00:23;10.60;99.90
6174;DHT22;3120;48.796;9.796;2022-11-12T16:02:58;10.20;99.90
6174;DHT22;3120;48.796;9.796;2022-11-12T16:05:24;10.00;99.90
6174;DHT22;3120;48.796;9.796;2022-11-12T16:07:50;10.00;99.90
6174;DHT22;3120;48.796;9.796;2022-11-12T16:10:17;10.30;99.90
6174;DHT22;3120;48.796;9.796;2022-11-12T16:12:44;9.90;99.90
6174;DHT22;3120;48.796;9.796;2022-11-12T16:15:20;10.10;99.90
6174;DHT22;3120;48.796;9.796;2022-11-12T16:17:50;9.50;99.90
6174;DHT22;3120;48.796;9.796;2022-11-12T16:20:18;9.70;99.90
6174;DHT22;3120;48.796;9.796;2022-11-12T16:23:02;9.30;99.90
6174;DHT22;3120;48.796;9.796;2022-11-12T16:25:32;9.30;99.90
6174;DHT22;3120;48.796;9.796;2022-11-12T16:28:01;9.20;99.90
6174;DHT22;3120;48.796;9.796;2022-11-12T16:30:32;9.20;99.90
6174;DHT22;3120;48.796;9.796;2022-11-12T16:32:59;9.10;99.90
6174;DHT22;3120;48.796;9.796;2022-11-12T16:35:26;9.00;99.90
6174;DHT22;3120;48.796;9.796;2022-11-12T16:37:53;9.00;99.90
6174;DHT22;3120;48.796;9.796;2022-11-12T16:40:22;8.90;99.90
6174;DHT22;3120;48.796;9.796;2022-11-12T16:42:48;8.80;99.90
6174;DHT22;3120;48.796;9.796;2022-11-12T16:45:15;8.70;99.90
6174;DHT22;3120;48.796;9.796;2022-11-12T16:47:48;9.60;99.90
6174;DHT22;3120;48.796;9.796;2022-11-12T16:50:17;8.70;99.90
6174;DHT22;3120;48.796;9.796;2022-11-12T16:52:43;8.60;99.90
6174;DHT22;3120;48.796;9.796;2022-11-12T16:55:09;8.50;99.90
6174;DHT22;3120;48.796;9.796;2022-11-12T16:57:35;8.50;99.90
6174;DHT22;3120;48.796;9.796;2022-11-12T17:00:02;8.30;99.90
6174;DHT22;3120;48.796;9.796;2022-11-12T17:02:56;8.30;99.90
6174;DHT22;3120;48.796;9.796;2022-11-12T17:05:23;8.20;99.90
6174;DHT22;3120;48.796;9.796;2022-11-12T17:07:54;8.80;99.90
6174;DHT22;3120;48.796;9.796;2022-11-12T17:10:21;8.40;99.90
6174;DHT22;3120;48.796;9.796;2022-11-12T17:12:49;8.50;99.90
6174;DHT22;3120;48.796;9.796;2022-11-12T17:15:14;8.00;99.90
6174;DHT22;3120;48.796;9.796;2022-11-12T17:17:41;8.00;99.90
6174;DHT22;3120;48.796;9.796;2022-11-12T17:20:07;7.90;99.90
6174;DHT22;3120;48.796;9.796;2022-11-12T17:22:33;7.90;99.90
6174;DHT22;3120;48.796;9.796;2022-11-12T17:24:59;7.90;99.90
6174;DHT22;3120;48.796;9.796;2022-11-12T17:27:25;7.80;99.90
6174;DHT22;3120;48.796;9.796;2022-11-12T17:29:51;7.70;99.90
6174;DHT22;3120;48.796;9.796;2022-11-12T17:32:17;7.60;99.90
6174;DHT22;3120;48.796;9.796;2022-11-12T17:34:42;7.60;99.90
6174;DHT22;3120;48.796;9.796;2022-11-12T17:37:08;7.50;99.90
6174;DHT22;3120;48.796;9.796;2022-11-12T17:39:33;7.50;99.90
6174;DHT22;3120;48.796;9.796;2022-11-12T17:41:59;7.50;99.90
6174;DHT22;3120;48.796;9.796;2022-11-12T17:44:25;7.40;99.90
6174;DHT22;3120;48.796;9.796;2022-11-12T17:46:50;8.60;99.90
6174;DHT22;3120;48.796;9.796;2022-11-12T17:49:16;7.30;99.90
6174;DHT22;3120;48.796;9.796;2022-11-12T17:51:42;7.30;99.90
6174;DHT22;3120;48.796;9.796;2022-11-12T17:54:07;7.20;99.90
6174;DHT22;3120;48.796;9.796;2022-11-12T17:56:33;7.10;99.90
6174;DHT22;3120;48.796;9.796;2022-11-12T17:59:00;7.90;99.90
6174;DHT22;3120;48.796;9.796;2022-11-12T18:01:28;7.80;99.90
6174;DHT22;3120;48.796;9.796;2022-11-12T18:03:55;7.00;99.90
6174;DHT22;3120;48.796;9.796;2022-11-12T18:06:24;6.90;99.90
6174;DHT22;3120;48.796;9.796;2022-11-12T18:08:54;6.80;99.90
6174;DHT22;3120;48.796;9.796;2022-11-12T18:11:20;6.80;99.90
6174;DHT22;3120;48.796;9.796;2022-11-12T18:13:46;6.80;99.90
6174;DHT22;3120;48.796;9.796;2022-11-12T18:16:14;6.70;99.90
6174;DHT22;3120;48.796;9.796;2022-11-12T18:18:40;6.60;99.90
6174;DHT22;3120;48.796;9.796;2022-11-12T18:21:05;6.50;99.90
6174;DHT22;3120;48.796;9.796;2022-11-12T18:23:31;6.50;99.90
6174;DHT22;3120;48.796;9.796;2022-11-12T18:25:56;6.40;99.90